Time;durP1;ratioP1;P1;durP2;ratioP2;P2;SDS_P1;SDS_P2;PMS_P1;PMS_P2;Temp;Humidity;BMP_temperature;BMP_pressure;BME280_temperature;BME280_humidity;BME280_pressure;Samples;Min_cycle;Max_cycle;Signal;HPM_P1;HPM_P2
2021/09/18 00:01:18;;;;;;;6.87;5.80;;;17.80;99.90;;;;;;5075388;28;20252;-64
2021/09/18 00:03:44;;;;;;;9.63;8.53;;;17.80;99.90;;;;;;5075332;28;20285;-63
2021/09/18 00:06:10;;;;;;;7.87;6.07;;;17.70;99.90;;;;;;5075370;28;20177;-63
2021/09/18 00:08:35;;;;;;;8.57;6.70;;;17.70;99.90;;;;;;5075212;28;20540;-63
2021/09/18 00:11:01;;;;;;;9.63;6.70;;;17.70;99.90;;;;;;5074986;28;20499;-63
2021/09/18 00:13:27;;;;;;;6.70;6.00;;;17.60;99.90;;;;;;5074873;28;20665;-63
2021/09/18 00:15:52;;;;;;;9.07;7.17;;;17.60;99.90;;;;;;5074709;28;20593;-62
2021/09/18 00:18:18;;;;;;;8.83;7.50;;;17.60;99.90;;;;;;5074955;28;20173;-62
2021/09/18 00:20:44;;;;;;;7.20;6.50;;;17.60;99.90;;;;;;5074994;28;20250;-64
2021/09/18 00:23:09;;;;;;;6.93;6.07;;;17.50;99.90;;;;;;5074938;28;20169;-63
2021/09/18 00:25:35;;;;;;;6.97;6.30;;;17.50;99.90;;;;;;5075273;28;20204;-63
2021/09/18 00:28:01;;;;;;;8.90;7.40;;;17.50;99.90;;;;;;5074774;28;20187;-64
2021/09/18 00:30:26;;;;;;;8.67;7.23;;;17.50;99.90;;;;;;5074453;28;20204;-62
2021/09/18 00:32:52;;;;;;;8.30;7.07;;;17.50;99.90;;;;;;5074786;28;20180;-64
2021/09/18 00:35:18;;;;;;;8.83;6.33;;;17.50;99.90;;;;;;5074822;28;20525;-64
2021/09/18 00:37:43;;;;;;;7.80;6.70;;;17.40;99.90;;;;;;5074581;28;20232;-63
2021/09/18 00:40:10;;;;;;;11.17;7.07;;;17.40;99.90;;;;;;5074977;28;20577;-63
2021/09/18 00:42:35;;;;;;;9.10;6.70;;;17.40;99.90;;;;;;5074696;28;20548;-64
2021/09/18 00:45:01;;;;;;;9.17;7.03;;;17.40;99.90;;;;;;5074804;28;20448;-64
2021/09/18 00:47:27;;;;;;;9.00;7.43;;;17.30;99.90;;;;;;5074568;28;20180;-63
2021/09/18 00:49:52;;;;;;;8.40;7.50;;;17.30;99.90;;;;;;5074651;28;20242;-62
2021/09/18 00:52:21;;;;;;;7.80;6.50;;;17.30;99.90;;;;;;5073678;28;20173;-63
2021/09/18 00:54:48;;;;;;;8.07;7.27;;;17.30;99.90;;;;;;5074378;28;20220;-62
2021/09/18 00:57:14;;;;;;;7.50;6.80;;;17.20;99.90;;;;;;5074269;28;20472;-63
2021/09/18 00:59:41;;;;;;;10.23;8.20;;;17.20;99.90;;;;;;5074562;28;20441;-63
2021/09/18 01:02:07;;;;;;;7.90;6.73;;;17.20;99.90;;;;;;5074178;28;20402;-64
2021/09/18 01:04:32;;;;;;;9.60;7.00;;;17.20;99.90;;;;;;5056261;28;20472;-63
2021/09/18 01:06:58;;;;;;;9.63;7.90;;;17.10;99.90;;;;;;5074083;28;20227;-65
2021/09/18 01:09:24;;;;;;;8.13;7.13;;;17.10;99.90;;;;;;5074224;28;20204;-63
2021/09/18 01:11:50;;;;;;;7.40;6.57;;;17.10;99.90;;;;;;5073876;28;20177;-64
2021/09/18 01:14:16;;;;;;;8.97;7.30;;;17.10;99.90;;;;;;5073964;28;20479;-63
2021/09/18 01:16:42;;;;;;;6.87;6.20;;;17.10;99.90;;;;;;5073631;28;20921;-64
2021/09/18 01:19:07;;;;;;;10.47;7.47;;;17.10;99.90;;;;;;5073799;28;20196;-65
2021/09/18 01:21:33;;;;;;;8.53;7.33;;;17.00;99.90;;;;;;5074060;28;20180;-64
2021/09/18 01:24:00;;;;;;;8.53;7.60;;;17.00;99.90;;;;;;5073948;28;20193;-63
2021/09/18 01:26:34;;;;;;;8.27;7.20;;;17.00;99.90;;;;;;5073793;28;20444;-64
2021/09/18 01:29:01;;;;;;;9.10;7.23;;;17.00;99.90;;;;;;5056054;28;20531;-64
2021/09/18 01:31:27;;;;;;;8.13;6.80;;;16.90;99.90;;;;;;5073633;28;20406;-64
2021/09/18 01:33:53;;;;;;;8.17;6.43;;;16.90;99.90;;;;;;5055494;28;20437;-63
2021/09/18 01:36:19;;;;;;;9.87;7.80;;;16.90;99.90;;;;;;5073670;28;20946;-64
2021/09/18 01:38:45;;;;;;;9.63;7.40;;;16.90;99.90;;;;;;5073665;28;20464;-64
2021/09/18 01:41:10;;;;;;;7.77;6.90;;;16.90;99.90;;;;;;5073784;28;20197;-64
2021/09/18 01:43:36;;;;;;;10.27;7.07;;;16.80;99.90;;;;;;5073651;28;20196;-63
2021/09/18 01:46:01;;;;;;;11.63;7.10;;;16.80;99.90;;;;;;5073644;28;20181;-64
2021/09/18 01:48:27;;;;;;;9.17;7.73;;;16.80;99.90;;;;;;5073322;28;20173;-63
2021/09/18 01:50:56;;;;;;;9.07;7.70;;;16.80;99.90;;;;;;5073485;28;20688;-64
2021/09/18 01:53:23;;;;;;;8.17;7.30;;;16.70;99.90;;;;;;5073494;28;20380;-65
2021/09/18 01:55:50;;;;;;;8.80;6.27;;;16.70;99.90;;;;;;5055253;28;20923;-65
2021/09/18 01:58:17;;;;;;;8.93;7.30;;;16.70;99.90;;;;;;5073429;28;20504;-64
2021/09/18 02:00:55;;;;;;;8.90;7.13;;;16.60;99.90;;;;;;5073462;28;20462;-64
2021/09/18 02:03:21;;;;;;;9.17;7.63;;;16.60;99.90;;;;;;5073717;28;20477;-65
2021/09/18 02:05:48;;;;;;;7.20;6.00;;;16.60;99.90;;;;;;5059569;28;20552;-64
2021/09/18 02:08:14;;;;;;;8.63;7.30;;;16.60;99.90;;;;;;5077417;28;20164;-64
2021/09/18 02:10:40;;;;;;;9.70;7.30;;;16.60;99.90;;;;;;5077295;28;20948;-64
2021/09/18 02:13:09;;;;;;;8.83;7.37;;;16.60;99.90;;;;;;5077440;28;20401;-64
2021/09/18 02:15:35;;;;;;;9.50;8.33;;;16.60;99.90;;;;;;5077214;28;20792;-63
2021/09/18 02:18:02;;;;;;;9.43;7.17;;;16.50;99.90;;;;;;5077342;28;20445;-64
2021/09/18 02:20:30;;;;;;;9.43;7.20;;;16.50;99.90;;;;;;5059505;28;20423;-64
2021/09/18 02:22:56;;;;;;;10.10;6.93;;;16.50;99.90;;;;;;5077248;28;20384;-64
2021/09/18 02:25:24;;;;;;;7.73;6.93;;;16.50;99.90;;;;;;5059404;28;20555;-64
2021/09/18 02:27:50;;;;;;;8.73;6.63;;;16.50;99.90;;;;;;5077111;28;20420;-64
2021/09/18 02:30:19;;;;;;;8.07;7.00;;;16.50;99.90;;;;;;5059319;28;20977;-64
2021/09/18 02:32:45;;;;;;;8.40;6.80;;;16.50;99.90;;;;;;5059002;28;20414;-65
2021/09/18 02:35:16;;;;;;;8.40;6.70;;;16.40;99.90;;;;;;5077171;28;20441;-63
2021/09/18 02:37:42;;;;;;;10.30;7.20;;;16.40;99.90;;;;;;5076968;28;21062;-65
2021/09/18 02:40:11;;;;;;;8.00;6.80;;;16.40;99.90;;;;;;5059099;28;20429;-64
2021/09/18 02:42:39;;;;;;;8.57;6.70;;;16.40;99.90;;;;;;5058958;28;20412;-63
2021/09/18 02:45:07;;;;;;;8.67;6.30;;;16.30;99.90;;;;;;5077150;28;20490;-63
2021/09/18 02:47:32;;;;;;;9.10;6.63;;;16.30;99.90;;;;;;5076761;28;20493;-64
2021/09/18 02:49:58;;;;;;;10.07;6.73;;;16.30;99.90;;;;;;5076981;28;20532;-65
2021/09/18 02:52:23;;;;;;;7.33;6.20;;;16.30;99.90;;;;;;5076546;28;20185;-65
2021/09/18 02:54:49;;;;;;;7.00;6.30;;;16.30;99.90;;;;;;5076369;28;20692;-64
2021/09/18 02:57:14;;;;;;;7.33;6.27;;;16.30;99.90;;;;;;5076551;28;20236;-65
2021/09/18 02:59:40;;;;;;;7.93;6.63;;;16.20;99.90;;;;;;5076847;28;20197;-65
2021/09/18 03:02:06;;;;;;;11.30;7.30;;;16.20;99.90;;;;;;5076572;28;20176;-65
2021/09/18 03:04:32;;;;;;;8.17;7.37;;;16.20;99.90;;;;;;5076634;28;20655;-63
2021/09/18 03:06:59;;;;;;;7.90;6.60;;;16.10;99.90;;;;;;5076421;28;20181;-63
2021/09/18 03:09:25;;;;;;;7.50;6.53;;;16.10;99.90;;;;;;5058392;28;20440;-63
2021/09/18 03:11:50;;;;;;;7.57;6.87;;;16.10;99.90;;;;;;5076201;28;20863;-64
2021/09/18 03:14:16;;;;;;;8.20;6.60;;;16.10;99.90;;;;;;5057609;28;20525;-63
2021/09/18 03:16:42;;;;;;;8.23;6.50;;;16.00;99.90;;;;;;5075965;28;20261;-63
2021/09/18 03:19:08;;;;;;;7.30;6.30;;;16.00;99.90;;;;;;5076342;28;20221;-63
2021/09/18 03:21:34;;;;;;;7.60;6.43;;;15.90;99.90;;;;;;5076273;28;20421;-65
2021/09/18 03:24:00;;;;;;;7.70;6.40;;;15.90;99.90;;;;;;5076166;28;20212;-63
2021/09/18 03:26:25;;;;;;;7.40;6.03;;;15.90;99.90;;;;;;5076086;28;20546;-64
2021/09/18 03:28:51;;;;;;;7.03;6.03;;;15.90;99.90;;;;;;5075941;28;20279;-63
2021/09/18 03:31:17;;;;;;;7.73;6.70;;;15.80;99.90;;;;;;5075818;28;20626;-65
2021/09/18 03:33:44;;;;;;;7.93;6.77;;;15.80;99.90;;;;;;5075922;28;20589;-63
2021/09/18 03:36:09;;;;;;;8.27;6.73;;;15.80;99.90;;;;;;5057750;28;20545;-63
2021/09/18 03:38:35;;;;;;;7.47;6.13;;;15.80;99.90;;;;;;5057805;28;20888;-63
2021/09/18 03:41:01;;;;;;;7.40;6.00;;;15.70;99.90;;;;;;5057863;28;20220;-64
2021/09/18 03:43:27;;;;;;;6.90;6.20;;;15.70;99.90;;;;;;5057752;28;20267;-63
2021/09/18 03:45:52;;;;;;;7.50;5.90;;;15.70;99.90;;;;;;5075768;28;20177;-63
2021/09/18 03:48:18;;;;;;;7.70;5.80;;;15.60;99.90;;;;;;5075523;28;20413;-63
2021/09/18 03:50:44;;;;;;;6.80;5.90;;;15.60;99.90;;;;;;5075604;28;20215;-63
2021/09/18 03:53:10;;;;;;;8.20;6.37;;;15.70;99.90;;;;;;5075517;28;20176;-63
2021/09/18 03:55:35;;;;;;;6.40;5.13;;;15.60;99.90;;;;;;5075784;28;20482;-63
2021/09/18 03:58:01;;;;;;;12.03;6.17;;;15.60;99.90;;;;;;5075416;28;20240;-63
2021/09/18 04:00:26;;;;;;;6.97;5.80;;;15.60;99.90;;;;;;5075835;28;20205;-63
2021/09/18 04:02:52;;;;;;;7.20;5.80;;;15.60;99.90;;;;;;5075445;28;20185;-63
2021/09/18 04:05:18;;;;;;;7.23;6.03;;;15.60;99.90;;;;;;5075682;28;20560;-63
2021/09/18 04:07:43;;;;;;;7.50;5.97;;;15.50;99.90;;;;;;5075240;28;20177;-64
2021/09/18 04:10:10;;;;;;;8.97;6.10;;;15.50;99.90;;;;;;5075104;28;20207;-63
2021/09/18 04:12:35;;;;;;;6.37;5.77;;;15.50;99.90;;;;;;5057049;28;20177;-65
2021/09/18 04:15:01;;;;;;;7.20;5.97;;;15.50;99.90;;;;;;5075216;28;20487;-63
2021/09/18 04:17:26;;;;;;;6.27;5.67;;;15.50;99.90;;;;;;5074952;28;20232;-63
2021/09/18 04:19:52;;;;;;;7.13;5.63;;;15.50;99.90;;;;;;5075315;28;20205;-63
2021/09/18 04:22:18;;;;;;;7.47;6.10;;;15.40;99.90;;;;;;5057163;28;20177;-64
2021/09/18 04:24:44;;;;;;;7.27;6.20;;;15.40;99.90;;;;;;5075212;28;20560;-63
2021/09/18 04:27:09;;;;;;;6.60;5.50;;;15.40;99.90;;;;;;5074057;28;20265;-64
2021/09/18 04:29:35;;;;;;;6.00;5.40;;;15.30;99.90;;;;;;5075133;28;20479;-65
2021/09/18 04:32:01;;;;;;;7.07;5.93;;;15.30;99.90;;;;;;5074619;28;20378;-64
2021/09/18 04:34:26;;;;;;;9.50;6.37;;;15.30;99.90;;;;;;5056584;28;20281;-63
2021/09/18 04:36:52;;;;;;;6.77;5.80;;;15.30;99.90;;;;;;5056730;28;20223;-63
2021/09/18 04:39:18;;;;;;;6.40;5.60;;;15.20;99.90;;;;;;5074768;28;20259;-64
2021/09/18 04:41:44;;;;;;;10.00;7.03;;;15.20;99.90;;;;;;5074591;28;20177;-64
2021/09/18 04:44:10;;;;;;;5.60;5.10;;;15.20;99.90;;;;;;5074606;28;20522;-63
2021/09/18 04:46:35;;;;;;;6.60;5.77;;;15.10;99.90;;;;;;5074505;28;20413;-64
2021/09/18 04:49:01;;;;;;;6.90;5.70;;;15.10;99.90;;;;;;5074012;28;20981;-63
2021/09/18 04:51:26;;;;;;;8.50;5.97;;;15.10;99.90;;;;;;5058085;28;20182;-63
2021/09/18 04:53:52;;;;;;;6.10;5.50;;;15.10;99.90;;;;;;5073748;28;20279;-63
2021/09/18 04:56:18;;;;;;;7.57;6.27;;;15.10;99.90;;;;;;5055688;28;20212;-64
2021/09/18 04:58:45;;;;;;;6.20;5.60;;;15.10;99.90;;;;;;5073289;28;20258;-64
2021/09/18 05:01:10;;;;;;;6.80;5.07;;;15.10;99.90;;;;;;5073917;28;20169;-64
2021/09/18 05:03:36;;;;;;;8.00;6.53;;;15.10;99.90;;;;;;5074081;28;20434;-64
2021/09/18 05:06:02;;;;;;;7.77;5.43;;;15.10;99.90;;;;;;5056266;28;20181;-65
2021/09/18 05:08:27;;;;;;;8.00;6.03;;;15.10;99.90;;;;;;5073562;28;20251;-64
2021/09/18 05:10:53;;;;;;;6.80;5.53;;;15.10;99.90;;;;;;5073799;28;20176;-64
2021/09/18 05:13:18;;;;;;;6.43;5.60;;;15.10;99.90;;;;;;5071649;28;20302;-64
2021/09/18 05:15:44;;;;;;;7.80;6.30;;;15.10;99.90;;;;;;5071533;28;20209;-65
2021/09/18 05:18:09;;;;;;;7.10;5.77;;;15.10;99.90;;;;;;5072321;28;20215;-63
2021/09/18 05:20:35;;;;;;;6.70;5.40;;;15.20;99.90;;;;;;5053998;28;20705;-63
2021/09/18 05:23:01;;;;;;;5.47;4.97;;;15.20;99.90;;;;;;5071743;28;20546;-64
2021/09/18 05:25:26;;;;;;;6.53;4.97;;;15.20;99.90;;;;;;5054237;28;20563;-63
2021/09/18 05:27:52;;;;;;;5.63;5.03;;;15.30;99.90;;;;;;5073510;28;20272;-64
2021/09/18 05:30:17;;;;;;;5.73;5.07;;;15.30;99.90;;;;;;5074334;28;20196;-63
2021/09/18 05:32:43;;;;;;;7.20;5.40;;;15.30;99.90;;;;;;5055657;28;20177;-65
2021/09/18 05:35:09;;;;;;;7.97;5.83;;;15.40;99.90;;;;;;5073933;28;20525;-64
2021/09/18 05:37:35;;;;;;;7.00;5.60;;;15.40;99.90;;;;;;5073515;28;20208;-64
2021/09/18 05:40:00;;;;;;;7.50;5.33;;;15.50;99.90;;;;;;5055841;28;20210;-63
2021/09/18 05:42:26;;;;;;;7.50;5.57;;;15.50;99.90;;;;;;5091211;28;20236;-63
2021/09/18 05:44:52;;;;;;;7.57;4.70;;;15.60;99.90;;;;;;5093040;28;20196;-63
2021/09/18 05:47:17;;;;;;;8.50;6.07;;;15.60;99.90;;;;;;5093151;28;20168;-63
2021/09/18 05:49:43;;;;;;;8.27;5.90;;;15.60;99.90;;;;;;5075747;28;20572;-63
2021/09/18 05:52:08;;;;;;;8.00;5.77;;;15.70;99.90;;;;;;5075631;28;20177;-64
2021/09/18 05:54:34;;;;;;;9.77;5.83;;;15.70;99.90;;;;;;5093866;28;20209;-64
2021/09/18 05:57:00;;;;;;;8.40;6.00;;;15.80;99.90;;;;;;5093626;28;20220;-64
2021/09/18 05:59:25;;;;;;;7.23;5.70;;;15.80;99.90;;;;;;5093689;28;20200;-63
2021/09/18 06:01:51;;;;;;;6.00;5.40;;;15.90;99.90;;;;;;5093693;28;20175;-63
2021/09/18 06:04:16;;;;;;;11.17;6.60;;;16.00;99.90;;;;;;5093826;28;20669;-64
2021/09/18 06:06:42;;;;;;;7.50;5.90;;;16.00;99.90;;;;;;5093695;28;20185;-64
2021/09/18 06:09:07;;;;;;;7.17;5.80;;;16.10;99.90;;;;;;5093507;28;20696;-63
2021/09/18 06:11:33;;;;;;;6.57;5.93;;;16.20;99.90;;;;;;5093542;28;20180;-63
2021/09/18 06:13:59;;;;;;;10.70;6.50;;;16.20;99.90;;;;;;5075440;28;20291;-63
2021/09/18 06:16:24;;;;;;;8.80;5.93;;;16.30;99.90;;;;;;5093169;28;20235;-63
2021/09/18 06:18:51;;;;;;;8.57;6.70;;;16.40;99.90;;;;;;5093526;28;20253;-63
2021/09/18 06:21:17;;;;;;;10.07;6.73;;;16.40;99.90;;;;;;5093521;28;20177;-63
2021/09/18 06:23:43;;;;;;;10.37;6.50;;;16.50;99.90;;;;;;5093301;28;20444;-64
2021/09/18 06:26:08;;;;;;;7.13;6.30;;;16.60;99.90;;;;;;5093525;28;20462;-65
2021/09/18 06:28:35;;;;;;;12.63;6.67;;;16.70;99.90;;;;;;5093546;28;20330;-64
2021/09/18 06:31:01;;;;;;;9.10;6.70;;;16.70;99.90;;;;;;5093496;28;20526;-64
2021/09/18 06:33:27;;;;;;;8.70;6.20;;;16.80;99.90;;;;;;5075050;28;20490;-63
2021/09/18 06:35:53;;;;;;;9.83;6.90;;;16.90;99.90;;;;;;5093161;28;20933;-63
2021/09/18 06:38:22;;;;;;;10.47;7.47;;;16.90;99.90;;;;;;5093229;28;20648;-63
2021/09/18 06:40:52;;;;;;;7.90;6.93;;;17.00;99.90;;;;;;5093383;28;20490;-63
2021/09/18 06:43:21;;;;;;;10.50;7.90;;;17.10;99.90;;;;;;5093226;28;21039;-64
2021/09/18 06:45:47;;;;;;;8.70;7.60;;;17.20;99.90;;;;;;5093334;28;20420;-63
2021/09/18 06:48:13;;;;;;;9.17;6.77;;;17.20;99.90;;;;;;5093178;28;20413;-63
2021/09/18 06:50:39;;;;;;;8.23;6.70;;;17.30;99.90;;;;;;5095551;28;20408;-64
2021/09/18 06:53:05;;;;;;;10.80;6.60;;;17.40;99.90;;;;;;5096807;28;20168;-64
2021/09/18 06:55:32;;;;;;;8.43;6.87;;;17.40;99.90;;;;;;5097167;28;20455;-63
2021/09/18 06:57:58;;;;;;;9.43;7.13;;;17.50;99.90;;;;;;5096774;28;20456;-63
2021/09/18 07:00:23;;;;;;;9.13;6.90;;;17.60;99.90;;;;;;5078889;28;21021;-64
2021/09/18 07:02:49;;;;;;;7.37;6.60;;;17.70;99.90;;;;;;5096796;28;20491;-63
2021/09/18 07:05:15;;;;;;;9.27;6.90;;;17.80;99.90;;;;;;5096685;28;20196;-64
2021/09/18 07:07:41;;;;;;;8.90;6.70;;;17.90;99.90;;;;;;5096720;28;20184;-63
2021/09/18 07:10:07;;;;;;;7.30;5.80;;;18.00;99.90;;;;;;5078589;28;20437;-63
2021/09/18 07:12:33;;;;;;;6.87;6.10;;;18.10;99.90;;;;;;5078259;28;20188;-63
2021/09/18 07:14:58;;;;;;;7.33;6.00;;;18.20;99.90;;;;;;5096726;28;20944;-64
2021/09/18 07:17:24;;;;;;;6.83;5.83;;;18.30;99.90;;;;;;5096274;28;20622;-63
2021/09/18 07:19:50;;;;;;;5.93;5.30;;;18.40;99.90;;;;;;5096784;28;20195;-63
2021/09/18 07:22:15;;;;;;;10.00;6.00;;;18.50;99.90;;;;;;5110387;28;20549;-64
2021/09/18 07:24:41;;;;;;;6.57;5.90;;;18.60;99.90;;;;;;5115395;28;20687;-63
2021/09/18 07:27:07;;;;;;;6.23;5.30;;;18.70;99.90;;;;;;5115894;28;20283;-64
2021/09/18 07:29:33;;;;;;;5.80;5.20;;;18.80;99.90;;;;;;5116950;28;20583;-63
2021/09/18 07:31:59;;;;;;;6.73;5.10;;;18.90;99.90;;;;;;5116553;28;20443;-64
2021/09/18 07:34:25;;;;;;;6.50;5.60;;;19.00;99.90;;;;;;5116878;28;20216;-63
2021/09/18 07:36:51;;;;;;;7.77;6.93;;;19.10;99.90;;;;;;5116187;28;20212;-64
2021/09/18 07:39:17;;;;;;;6.20;5.50;;;19.30;99.90;;;;;;5098180;28;20228;-65
2021/09/18 07:41:42;;;;;;;5.67;4.70;;;19.40;99.90;;;;;;5116477;28;20897;-63
2021/09/18 07:44:08;;;;;;;7.80;6.17;;;19.50;99.90;;;;;;5116579;28;20199;-63
2021/09/18 07:46:34;;;;;;;9.43;5.10;;;19.60;99.90;;;;;;5098177;28;20185;-63
2021/09/18 07:49:00;;;;;;;5.80;4.90;;;19.80;99.90;;;;;;5116296;28;20432;-63
2021/09/18 07:51:26;;;;;;;6.13;5.57;;;19.90;99.90;;;;;;5116134;28;20238;-63
2021/09/18 07:53:52;;;;;;;5.70;4.90;;;20.00;99.90;;;;;;5116227;28;20776;-63
2021/09/18 07:56:18;;;;;;;5.17;4.63;;;20.00;99.90;;;;;;5115987;28;20458;-63
2021/09/18 07:58:44;;;;;;;7.40;5.57;;;20.10;99.90;;;;;;5116105;28;20446;-63
2021/09/18 08:01:09;;;;;;;7.87;4.10;;;20.20;99.90;;;;;;5116087;28;20238;-63
2021/09/18 08:03:35;;;;;;;5.67;5.07;;;20.30;99.90;;;;;;5116073;28;20206;-65
2021/09/18 08:06:01;;;;;;;6.77;4.97;;;20.40;99.90;;;;;;5115925;28;20187;-65
2021/09/18 08:08:26;;;;;;;5.20;4.70;;;20.50;99.90;;;;;;5115875;28;20174;-63
2021/09/18 08:10:52;;;;;;;7.90;5.00;;;20.60;99.90;;;;;;5115935;28;20180;-63
2021/09/18 08:13:18;;;;;;;5.07;4.67;;;20.70;99.90;;;;;;5115547;28;20396;-65
2021/09/18 08:15:43;;;;;;;4.47;4.07;;;20.90;99.90;;;;;;5115433;28;20175;-63
2021/09/18 08:18:09;;;;;;;4.50;4.10;;;21.20;99.90;;;;;;5115726;28;20199;-63
2021/09/18 08:20:35;;;;;;;5.27;4.03;;;21.70;99.90;;;;;;5116157;28;20196;-64
2021/09/18 08:23:00;;;;;;;3.90;3.30;;;22.40;99.90;;;;;;5115651;28;20172;-63
2021/09/18 08:25:26;;;;;;;4.27;3.87;;;23.20;99.90;;;;;;5116103;28;20210;-64
2021/09/18 08:27:52;;;;;;;3.97;3.57;;;24.10;99.90;;;;;;5115655;28;20229;-65
2021/09/18 08:30:18;;;;;;;4.37;3.90;;;25.00;99.90;;;;;;5097432;28;20197;-65
2021/09/18 08:32:44;;;;;;;3.70;3.40;;;25.90;99.90;;;;;;5115298;28;20172;-63
2021/09/18 08:35:11;;;;;;;3.83;3.40;;;26.70;99.30;;;;;;5115616;28;20448;-63
2021/09/18 08:37:37;;;;;;;4.03;3.33;;;27.30;97.90;;;;;;5115214;28;20237;-64
2021/09/18 08:40:03;;;;;;;3.83;3.43;;;27.80;97.10;;;;;;5096913;28;20443;-64
2021/09/18 08:42:29;;;;;;;3.90;3.10;;;28.20;96.40;;;;;;5096989;28;20640;-65
2021/09/18 08:44:55;;;;;;;3.90;3.50;;;28.20;95.10;;;;;;5115448;28;20438;-64
2021/09/18 08:47:23;;;;;;;4.83;2.97;;;28.00;95.20;;;;;;5115189;28;20179;-64
2021/09/18 08:49:48;;;;;;;3.90;3.50;;;27.50;95.00;;;;;;5114949;28;20351;-64
2021/09/18 08:52:14;;;;;;;6.40;3.57;;;27.10;95.00;;;;;;5114957;28;20410;-64
2021/09/18 08:54:41;;;;;;;4.20;3.00;;;26.70;95.50;;;;;;5115243;28;20652;-65
2021/09/18 08:57:07;;;;;;;3.00;2.73;;;26.40;96.00;;;;;;5114799;28;20474;-65
2021/09/18 08:59:38;;;;;;;2.80;2.60;;;26.00;96.00;;;;;;5114689;28;20562;-65
2021/09/18 09:02:16;;;;;;;2.87;2.67;;;25.70;95.40;;;;;;5114879;28;20838;-65
2021/09/18 09:04:44;;;;;;;3.83;3.40;;;25.40;96.10;;;;;;5115109;28;20776;-64
2021/09/18 09:07:13;;;;;;;4.70;2.37;;;25.10;96.30;;;;;;5114907;28;20819;-64
2021/09/18 09:09:53;;;;;;;2.47;2.20;;;24.90;96.40;;;;;;5115006;28;20438;-65
2021/09/18 09:12:32;;;;;;;2.17;2.03;;;24.70;96.60;;;;;;5095783;28;20428;-64
2021/09/18 09:15:00;;;;;;;2.87;2.30;;;24.60;96.20;;;;;;5114510;28;20437;-63
2021/09/18 09:17:28;;;;;;;2.80;2.50;;;24.50;96.10;;;;;;5114294;28;20834;-64
2021/09/18 09:19:55;;;;;;;3.10;2.90;;;24.40;96.50;;;;;;5114906;28;20516;-65
2021/09/18 09:22:43;;;;;;;3.10;2.90;;;24.20;96.70;;;;;;5114657;28;20397;-64
2021/09/18 09:25:25;;;;;;;4.13;3.00;;;24.20;96.90;;;;;;5114410;28;20437;-63
2021/09/18 09:27:50;;;;;;;2.60;2.40;;;24.00;96.90;;;;;;5114526;28;20443;-65
2021/09/18 09:30:32;;;;;;;3.43;3.17;;;23.80;97.00;;;;;;5114122;28;20440;-65
2021/09/18 09:33:08;;;;;;;3.37;3.07;;;23.70;97.20;;;;;;5113079;28;20191;-63
2021/09/18 09:35:35;;;;;;;3.20;2.90;;;23.60;97.30;;;;;;5093889;28;20452;-65
2021/09/18 09:38:01;;;;;;;2.90;2.70;;;23.60;97.40;;;;;;5112121;28;20487;-63
2021/09/18 09:40:36;;;;;;;3.00;2.80;;;23.50;97.30;;;;;;5112573;28;20917;-63
2021/09/18 09:43:03;;;;;;;3.13;2.93;;;23.40;97.20;;;;;;5093853;28;20422;-63
2021/09/18 09:45:29;;;;;;;4.30;3.30;;;23.40;97.70;;;;;;5112422;28;20457;-63
2021/09/18 09:48:05;;;;;;;2.67;2.47;;;23.30;97.30;;;;;;5111896;28;20451;-64
2021/09/18 09:50:32;;;;;;;2.60;2.40;;;23.30;97.70;;;;;;5113518;28;20448;-64
2021/09/18 09:52:58;;;;;;;2.43;2.20;;;23.30;97.70;;;;;;5113921;28;20419;-64
2021/09/18 09:55:25;;;;;;;2.87;2.67;;;23.20;97.00;;;;;;5114413;28;20432;-63
2021/09/18 09:58:03;;;;;;;3.13;2.60;;;23.30;96.90;;;;;;5113980;28;20464;-65
2021/09/18 10:00:43;;;;;;;3.53;2.93;;;23.30;97.40;;;;;;5114671;28;20464;-63
2021/09/18 10:03:09;;;;;;;2.63;2.37;;;23.30;97.50;;;;;;5114256;28;20404;-65
2021/09/18 10:05:36;;;;;;;3.00;2.40;;;23.40;97.60;;;;;;5114511;28;20933;-64
2021/09/18 10:08:03;;;;;;;3.47;2.93;;;23.40;97.10;;;;;;5095758;28;20424;-64
2021/09/18 10:10:30;;;;;;;2.90;2.60;;;23.30;97.20;;;;;;5114357;28;20453;-63
2021/09/18 10:12:56;;;;;;;2.97;2.60;;;23.30;96.90;;;;;;5113849;28;20432;-63
2021/09/18 10:15:28;;;;;;;3.27;2.97;;;23.30;97.30;;;;;;5114645;28;20489;-63
2021/09/18 10:17:56;;;;;;;2.67;2.30;;;23.30;97.20;;;;;;5113785;28;21042;-65
2021/09/18 10:25:38;;;;;;;3.50;2.70;;;23.20;97.20;;;;;;5116969;28;20536;-63
2021/09/18 10:28:13;;;;;;;2.40;2.20;;;23.20;97.50;;;;;;5117887;28;20469;-63
2021/09/18 10:30:55;;;;;;;3.23;2.93;;;23.10;97.10;;;;;;5118389;28;20412;-65
2021/09/18 10:33:36;;;;;;;2.20;2.00;;;23.10;97.30;;;;;;5117576;28;20491;-63
2021/09/18 10:36:04;;;;;;;2.67;2.47;;;23.00;97.30;;;;;;5117551;28;20408;-65
2021/09/18 10:38:33;;;;;;;2.27;2.07;;;23.00;97.30;;;;;;5117679;28;20412;-63
2021/09/18 10:41:18;;;;;;;3.00;2.30;;;23.10;97.00;;;;;;5099364;28;20416;-63
2021/09/18 10:44:01;;;;;;;3.27;3.03;;;23.10;97.10;;;;;;5117633;28;20764;-63
2021/09/18 10:47:01;;;;;;;2.70;2.50;;;23.20;97.10;;;;;;5117698;28;20912;-64
2021/09/18 10:49:37;;;;;;;3.07;2.77;;;23.30;96.90;;;;;;5099268;28;20452;-63
2021/09/18 10:52:18;;;;;;;2.90;2.70;;;23.30;96.60;;;;;;5117463;28;20424;-64
2021/09/18 10:55:02;;;;;;;2.63;2.43;;;23.30;97.10;;;;;;5117571;28;20439;-63
2021/09/18 10:57:48;;;;;;;2.47;2.27;;;23.30;96.50;;;;;;5117114;28;20459;-65
2021/09/18 11:00:20;;;;;;;5.00;2.90;;;23.30;96.20;;;;;;5099155;28;20813;-66
2021/09/18 11:02:50;;;;;;;3.10;2.50;;;23.30;96.00;;;;;;5117269;28;20412;-63
2021/09/18 11:05:21;;;;;;;2.93;2.57;;;23.30;95.80;;;;;;5117592;28;20439;-64
2021/09/18 11:07:52;;;;;;;3.63;3.07;;;23.40;96.00;;;;;;5117085;28;20442;-65
2021/09/18 11:10:21;;;;;;;2.60;2.40;;;23.40;96.00;;;;;;5117522;28;20428;-64
2021/09/18 11:13:08;;;;;;;2.77;2.57;;;23.40;95.90;;;;;;5098736;28;20450;-65
2021/09/18 11:15:46;;;;;;;2.90;2.60;;;23.40;95.90;;;;;;5117167;28;20436;-64
2021/09/18 11:18:35;;;;;;;3.07;2.43;;;23.40;95.80;;;;;;5116770;28;20540;-64
2021/09/18 11:21:09;;;;;;;3.57;2.57;;;23.40;95.90;;;;;;5116931;28;20483;-65
2021/09/18 11:23:49;;;;;;;2.23;1.90;;;23.50;95.50;;;;;;5116728;28;20432;-65
2021/09/18 11:26:35;;;;;;;2.73;2.00;;;23.50;95.00;;;;;;5116979;28;20427;-65
2021/09/18 11:29:12;;;;;;;2.80;2.60;;;23.50;94.90;;;;;;5098413;28;20456;-65
2021/09/18 11:31:39;;;;;;;2.90;2.70;;;23.60;95.10;;;;;;5116744;28;20768;-65
2021/09/18 11:34:05;;;;;;;3.00;2.70;;;23.60;94.80;;;;;;5116530;28;20454;-63
2021/09/18 11:36:45;;;;;;;2.97;2.50;;;23.70;94.40;;;;;;5115959;28;20456;-65
2021/09/18 11:39:11;;;;;;;3.10;2.30;;;23.70;94.00;;;;;;5116836;28;20829;-63
2021/09/18 11:41:37;;;;;;;3.73;3.43;;;23.80;94.10;;;;;;5098177;28;20413;-64
2021/09/18 11:44:11;;;;;;;3.00;2.80;;;23.80;93.80;;;;;;5098216;28;20677;-63
2021/09/18 11:46:37;;;;;;;3.33;2.37;;;23.80;94.00;;;;;;5116472;28;20394;-64
2021/09/18 11:49:04;;;;;;;2.80;2.30;;;23.80;94.10;;;;;;5116407;28;20498;-63
2021/09/18 11:51:30;;;;;;;2.47;2.30;;;23.90;94.40;;;;;;5116475;28;20403;-63
2021/09/18 11:54:05;;;;;;;2.40;2.20;;;23.90;93.70;;;;;;5116257;28;20457;-65
2021/09/18 11:56:31;;;;;;;2.50;2.30;;;23.90;93.00;;;;;;5116016;28;20572;-65
2021/09/18 11:59:10;;;;;;;2.50;2.20;;;23.90;93.30;;;;;;5116242;28;20447;-64
2021/09/18 12:01:36;;;;;;;2.83;2.50;;;23.90;93.30;;;;;;5116260;28;20161;-65
2021/09/18 12:04:02;;;;;;;3.27;2.83;;;23.90;93.60;;;;;;5097794;28;20501;-63
2021/09/18 12:06:29;;;;;;;2.67;2.47;;;23.90;93.40;;;;;;5097500;28;20430;-65
2021/09/18 12:08:55;;;;;;;2.83;2.50;;;23.90;94.10;;;;;;5075722;28;20199;-64
2021/09/18 12:11:21;;;;;;;5.10;3.20;;;23.90;94.20;;;;;;5095318;28;20398;-64
2021/09/18 12:13:49;;;;;;;2.73;2.53;;;23.90;94.00;;;;;;5095448;28;20197;-64
2021/09/18 12:16:17;;;;;;;5.30;2.73;;;23.90;94.10;;;;;;5095055;28;20458;-65
2021/09/18 12:18:45;;;;;;;2.70;2.50;;;24.00;93.90;;;;;;5095184;28;20881;-64
2021/09/18 12:21:17;;;;;;;5.27;2.80;;;24.00;94.00;;;;;;5095357;28;20405;-65
2021/09/18 12:23:46;;;;;;;2.33;2.17;;;24.00;94.20;;;;;;5095347;28;20481;-65
2021/09/18 12:26:12;;;;;;;2.50;2.30;;;24.10;94.00;;;;;;5095250;28;20456;-65
2021/09/18 12:28:38;;;;;;;2.97;2.60;;;24.10;93.60;;;;;;5095220;28;20893;-64
2021/09/18 12:31:22;;;;;;;2.83;2.63;;;24.10;93.90;;;;;;5095171;28;20405;-65
2021/09/18 12:33:49;;;;;;;2.37;2.17;;;24.20;94.00;;;;;;5095254;28;20512;-64
2021/09/18 12:36:22;;;;;;;2.90;2.40;;;24.20;94.00;;;;;;5094738;28;20422;-64
2021/09/18 12:38:48;;;;;;;2.40;2.20;;;24.20;93.90;;;;;;5095080;28;20506;-63
2021/09/18 12:41:17;;;;;;;2.93;2.63;;;24.30;94.00;;;;;;5095141;28;20890;-64
2021/09/18 12:44:00;;;;;;;3.60;2.57;;;24.30;94.00;;;;;;5094758;28;20433;-65
2021/09/18 12:46:28;;;;;;;2.90;2.53;;;24.30;93.80;;;;;;5076671;28;21043;-63
2021/09/18 12:49:02;;;;;;;2.20;2.00;;;24.30;93.90;;;;;;5094030;28;20425;-63
2021/09/18 12:51:30;;;;;;;2.73;2.53;;;24.30;93.70;;;;;;5094807;28;20886;-64
2021/09/18 12:53:57;;;;;;;3.57;3.27;;;24.20;93.70;;;;;;5094511;28;20440;-63